< < Back
Terminal Aerodrome Forecast


Current Version              Previous Versions:   1  2  3  4  5  6  7  8  9  

Terminal Aerodrome Forecast

075
FTUS42 KFFC 220900 AAC
TAFATL
TAF AMD
KATL 220957Z 2210/2312 10004KT P6SM BKN009
      TEMPO 2210/2214 SCT009 BKN025
     FM221400 08006KT 6SM BR SCT007 BKN012
     FM221600 08006KT P6SM VCSH SCT020 BKN035
      TEMPO 2219/2223 5SM -TSRA BR BKN020CB
     FM230000 10005KT P6SM BKN035
     FM230900 13003KT P6SM SCT006 SCT090=



Latest METAR

450
SAUS70 KWBC 221500 RRA
MTRATL
METAR KATL 221452Z 13005KT 10SM FEW014 SCT060 BKN080 BKN250 24/21 A3016
RMK AO2 SLP203 T02440206 50005


USA.gov is the U.S. government's official web portal to all federal, state and local government web resources and services.